createdAt,value
2023-02-22T00:00:48.958Z,10.92
2023-02-22T00:05:47.749Z,10.77
2023-02-22T00:10:46.663Z,10.44
2023-02-22T00:15:45.949Z,10.54
2023-02-22T00:20:45.029Z,10.75
2023-02-22T00:25:43.765Z,10.64
2023-02-22T00:30:45.824Z,10.65
2023-02-22T00:35:46.023Z,10.54
2023-02-22T00:40:45.568Z,10.43
2023-02-22T00:45:44.521Z,10.16
2023-02-22T00:50:43.436Z,10.09
2023-02-22T00:55:42.187Z,9.82
2023-02-22T01:00:42.949Z,9.73
2023-02-22T01:05:41.826Z,9.67
2023-02-22T01:10:40.950Z,10.09
2023-02-22T01:15:42.355Z,9.90
2023-02-22T01:20:41.114Z,9.70
2023-02-22T01:25:40.140Z,9.88
2023-02-22T01:30:39.063Z,9.79
2023-02-22T01:35:42.141Z,9.67
2023-02-22T01:40:43.615Z,9.91
2023-02-22T01:46:05.118Z,9.95
2023-02-22T01:51:11.013Z,10.01
2023-02-22T01:56:12.224Z,10.06
2023-02-22T02:01:11.934Z,9.95
2023-02-22T02:06:14.846Z,9.85
2023-02-22T02:11:14.208Z,9.90
2023-02-22T02:16:13.422Z,9.90
2023-02-22T02:21:37.068Z,9.91
2023-02-22T02:26:48.775Z,9.97
2023-02-22T02:32:08.518Z,10.22
2023-02-22T02:37:20.944Z,10.05
2023-02-22T02:42:25.428Z,9.93
2023-02-22T02:47:29.020Z,9.97
2023-02-22T02:52:30.390Z,10.04
2023-02-22T02:57:29.136Z,10.08
2023-02-22T03:03:18.946Z,9.99
2023-02-22T03:08:51.419Z,10.09
2023-02-22T03:14:10.391Z,9.84
2023-02-22T03:19:28.352Z,10.14
2023-02-22T03:24:37.398Z,9.89
2023-02-22T03:29:42.764Z,9.88
2023-02-22T03:34:53.040Z,9.74
2023-02-22T03:39:55.344Z,9.77
2023-02-22T03:44:58.025Z,9.97
2023-02-22T03:50:11.347Z,10.10
2023-02-22T03:55:11.980Z,9.93
2023-02-22T04:00:14.898Z,10.05
2023-02-22T04:05:16.077Z,9.87
2023-02-22T04:10:16.568Z,9.25
2023-02-22T04:15:20.125Z,9.01
2023-02-22T04:20:25.533Z,8.80
2023-02-22T04:25:28.057Z,8.64
2023-02-22T04:30:30.245Z,8.28
2023-02-22T04:35:29.707Z,8.43
2023-02-22T04:40:28.536Z,8.19
2023-02-22T04:45:28.083Z,8.08
2023-02-22T04:50:28.219Z,8.65
2023-02-22T04:55:30.909Z,8.50
2023-02-22T05:00:29.793Z,8.63
2023-02-22T05:05:32.869Z,8.85
2023-02-22T05:10:31.614Z,9.20
2023-02-22T05:15:30.379Z,8.89
2023-02-22T05:20:35.903Z,8.96
2023-02-22T05:25:34.824Z,9.36
2023-02-22T05:30:36.222Z,9.11
2023-02-22T05:35:37.077Z,12.77
2023-02-22T05:40:36.000Z,13.79
2023-02-22T05:45:36.186Z,14.47
2023-02-22T05:50:35.172Z,14.18
2023-02-22T05:55:33.953Z,13.87
2023-02-22T06:00:33.945Z,14.72
2023-02-22T06:05:33.118Z,13.61
2023-02-22T06:10:33.053Z,11.63
2023-02-22T06:15:31.893Z,10.65
2023-02-22T06:20:31.409Z,10.02
2023-02-22T06:25:31.690Z,9.63
2023-02-22T06:30:30.964Z,9.56
2023-02-22T06:35:29.773Z,9.58
2023-02-22T06:40:31.421Z,9.49
2023-02-22T06:45:30.228Z,9.56
2023-02-22T06:50:31.489Z,9.68
2023-02-22T06:55:33.202Z,9.60
2023-02-22T07:00:33.013Z,9.63
2023-02-22T07:05:31.911Z,9.36
2023-02-22T07:10:32.112Z,9.65
2023-02-22T07:15:32.804Z,9.79
2023-02-22T07:20:31.991Z,9.74
2023-02-22T07:25:30.843Z,10.33
2023-02-22T07:30:33.992Z,10.19
2023-02-22T07:35:44.781Z,10.13
2023-02-22T07:40:44.338Z,10.31
2023-02-22T07:45:43.936Z,10.31
2023-02-22T07:50:43.053Z,10.24
2023-02-22T07:55:42.056Z,10.21
2023-02-22T08:00:41.554Z,10.33
2023-02-22T08:05:43.074Z,10.35
2023-02-22T08:10:42.839Z,10.32
2023-02-22T08:15:44.379Z,10.49
2023-02-22T08:20:44.999Z,10.49
2023-02-22T08:25:44.658Z,10.59
2023-02-22T08:30:46.365Z,10.56
2023-02-22T08:35:49.563Z,10.86
2023-02-22T08:40:49.663Z,11.09
2023-02-22T08:45:49.483Z,10.96
2023-02-22T08:50:48.406Z,10.86
2023-02-22T08:55:50.013Z,11.00
2023-02-22T09:00:49.235Z,11.26
2023-02-22T09:05:48.357Z,11.38
2023-02-22T09:10:47.727Z,11.50
2023-02-22T09:15:46.547Z,11.29
2023-02-22T09:20:45.445Z,11.46
2023-02-22T09:25:44.482Z,11.68
2023-02-22T09:30:43.398Z,11.83
2023-02-22T09:35:46.445Z,11.61
2023-02-22T09:41:24.904Z,11.59
2023-02-22T09:46:37.973Z,11.78
2023-02-22T09:51:52.691Z,11.57
2023-02-22T09:56:55.588Z,12.13
2023-02-22T10:02:20.447Z,12.36
2023-02-22T10:07:34.251Z,11.75
2023-02-22T10:12:42.468Z,11.82
2023-02-22T10:18:30.129Z,11.98
2023-02-22T10:23:48.818Z,12.42
2023-02-22T10:28:59.360Z,12.42
2023-02-22T10:34:05.763Z,12.35
2023-02-22T10:39:28.210Z,12.61
2023-02-22T10:44:29.082Z,12.71
2023-02-22T10:49:35.958Z,12.54
2023-02-22T10:54:40.334Z,12.87
2023-02-22T10:59:42.255Z,12.49
2023-02-22T11:04:52.897Z,12.93
2023-02-22T11:10:04.111Z,13.14
2023-02-22T11:15:22.377Z,13.41
2023-02-22T11:20:34.443Z,13.29
2023-02-22T11:25:39.782Z,13.29
2023-02-22T11:30:39.211Z,13.14
2023-02-22T11:36:00.839Z,13.42
2023-02-22T11:41:15.925Z,13.23
2023-02-22T11:46:27.644Z,13.45
2023-02-22T11:51:38.438Z,13.57
2023-02-22T11:56:46.058Z,13.75
2023-02-22T12:01:56.346Z,13.83
2023-02-22T12:07:16.566Z,13.72
2023-02-22T12:12:32.299Z,13.75
2023-02-22T12:17:35.197Z,13.93
2023-02-22T12:22:37.992Z,13.95
2023-02-22T12:27:43.332Z,14.00
2023-02-22T12:32:54.644Z,13.53
2023-02-22T12:38:12.358Z,13.74
2023-02-22T12:43:16.772Z,13.88
2023-02-22T12:48:31.602Z,13.77
2023-02-22T12:53:41.224Z,13.85
2023-02-22T12:59:08.383Z,13.60
2023-02-22T13:04:20.118Z,13.73
2023-02-22T13:09:24.540Z,13.78
2023-02-22T13:14:54.832Z,13.85
2023-02-22T13:20:10.110Z,13.64
2023-02-22T13:25:17.859Z,13.65
2023-02-22T13:30:39.132Z,13.87
2023-02-22T13:35:40.770Z,13.84
2023-02-22T13:40:45.871Z,13.75
2023-02-22T13:46:02.842Z,13.95
2023-02-22T13:51:34.219Z,13.73
2023-02-22T13:56:33.215Z,13.44
2023-02-22T14:01:47.699Z,13.19
2023-02-22T14:06:48.945Z,13.17
2023-02-22T14:11:48.439Z,13.26
2023-02-22T14:17:17.851Z,13.40
2023-02-22T14:22:28.262Z,13.18
2023-02-22T14:27:40.175Z,13.19
2023-02-22T14:32:39.150Z,13.07
2023-02-22T14:37:42.714Z,12.87
2023-02-22T14:42:46.472Z,13.05
2023-02-22T14:48:04.025Z,13.26
2023-02-22T14:53:18.164Z,13.17
2023-02-22T14:58:21.492Z,13.03
2023-02-22T15:03:34.418Z,12.89
2023-02-22T15:08:34.454Z,12.91
2023-02-22T15:13:33.488Z,12.76
2023-02-22T15:18:47.875Z,12.71
2023-02-22T15:23:53.662Z,12.39
2023-02-22T15:28:57.738Z,12.43
2023-02-22T15:33:57.135Z,12.32
2023-02-22T15:38:55.916Z,12.13
2023-02-22T15:44:14.213Z,11.99
2023-02-22T15:49:23.463Z,11.91
2023-02-22T15:54:27.546Z,11.73
2023-02-22T15:59:30.916Z,11.57
2023-02-22T16:04:31.448Z,11.26
2023-02-22T16:09:33.258Z,11.46
2023-02-22T16:14:35.302Z,11.26
2023-02-22T16:19:42.852Z,11.16
2023-02-22T16:24:42.460Z,11.12
2023-02-22T16:29:42.054Z,10.99
2023-02-22T16:34:40.965Z,11.65
2023-02-22T16:39:41.414Z,12.77
2023-02-22T16:44:40.595Z,13.12
2023-02-22T16:49:39.321Z,11.84
2023-02-22T16:54:46.009Z,11.21
2023-02-22T16:59:45.028Z,10.92
2023-02-22T17:04:49.278Z,10.88
2023-02-22T17:09:48.058Z,10.89
2023-02-22T17:14:46.994Z,10.86
2023-02-22T17:19:45.800Z,10.83
2023-02-22T17:24:44.630Z,10.75
2023-02-22T17:29:45.126Z,10.72
2023-02-22T17:34:43.870Z,10.82
2023-02-22T17:39:42.716Z,10.63
2023-02-22T17:44:42.513Z,10.68
2023-02-22T17:49:41.432Z,10.56
2023-02-22T17:54:40.166Z,10.64
2023-02-22T17:59:40.581Z,10.46
2023-02-22T18:04:40.489Z,10.39
2023-02-22T18:09:39.284Z,10.49
2023-02-22T18:14:38.514Z,10.19
2023-02-22T18:19:37.345Z,10.36
2023-02-22T18:24:36.163Z,10.19
2023-02-22T18:29:34.965Z,10.07
2023-02-22T18:34:33.936Z,10.04
2023-02-22T18:39:40.660Z,9.97
2023-02-22T18:44:40.081Z,9.84
2023-02-22T18:49:41.985Z,9.74
2023-02-22T18:54:42.969Z,9.86
2023-02-22T18:59:43.178Z,9.67
2023-02-22T19:04:44.170Z,9.88
2023-02-22T19:09:43.273Z,9.82
2023-02-22T19:14:42.496Z,9.61
2023-02-22T19:19:41.285Z,9.52
2023-02-22T19:24:40.070Z,9.55
2023-02-22T19:29:42.599Z,9.52
2023-02-22T19:34:43.959Z,9.32
2023-02-22T19:39:43.462Z,9.34
2023-02-22T19:44:42.310Z,9.30
2023-02-22T19:49:41.184Z,9.28
2023-02-22T19:54:40.136Z,9.28
2023-02-22T19:59:39.097Z,8.84
2023-02-22T20:04:37.968Z,8.84
2023-02-22T20:09:39.367Z,8.92
2023-02-22T20:14:38.756Z,8.75
2023-02-22T20:19:38.773Z,8.61
2023-02-22T20:24:37.531Z,8.70
2023-02-22T20:29:36.357Z,8.28
2023-02-22T20:34:36.240Z,8.39
2023-02-22T20:39:35.097Z,8.41
2023-02-22T20:44:33.858Z,8.41
2023-02-22T20:49:32.954Z,8.45
2023-02-22T20:54:34.333Z,8.38
2023-02-22T20:59:33.066Z,8.28
2023-02-22T21:04:33.281Z,8.26
2023-02-22T21:09:33.918Z,8.23
2023-02-22T21:14:34.703Z,8.20
2023-02-22T21:19:33.561Z,8.02
2023-02-22T21:24:33.558Z,8.16
2023-02-22T21:29:35.500Z,8.25
2023-02-22T21:34:35.161Z,8.13
2023-02-22T21:39:33.989Z,8.20
2023-02-22T21:44:32.964Z,8.20
2023-02-22T21:49:31.847Z,8.14
2023-02-22T21:54:30.812Z,8.24
2023-02-22T21:59:29.582Z,7.89
2023-02-22T22:04:30.093Z,8.01
2023-02-22T22:09:33.268Z,7.90
2023-02-22T22:14:32.745Z,7.86
2023-02-22T22:19:34.261Z,7.85
2023-02-22T22:24:45.913Z,7.85
2023-02-22T22:29:45.451Z,7.81
2023-02-22T22:34:44.189Z,7.95
2023-02-22T22:39:42.934Z,7.80
2023-02-22T22:44:42.149Z,7.80
2023-02-22T22:49:41.062Z,7.88
2023-02-22T22:54:41.287Z,7.89
2023-02-22T22:59:40.041Z,7.64
2023-02-22T23:04:38.954Z,7.87
2023-02-22T23:09:39.492Z,8.01
2023-02-22T23:14:44.167Z,7.94
2023-02-22T23:19:45.094Z,8.03
2023-02-22T23:24:45.182Z,7.75
2023-02-22T23:29:46.730Z,7.84
2023-02-22T23:34:49.565Z,7.86
2023-02-22T23:39:48.903Z,7.92
2023-02-22T23:44:48.132Z,7.84
2023-02-22T23:49:49.566Z,7.97
2023-02-22T23:54:52.291Z,7.85
2023-02-22T23:59:51.396Z,7.81
